createdAt,value
2022-10-31T00:02:07.648Z,12.00
2022-10-31T00:04:34.599Z,12.00
2022-10-31T00:07:07.615Z,12.10
2022-10-31T00:09:34.525Z,12.00
2022-10-31T00:12:01.457Z,12.00
2022-10-31T00:14:34.652Z,12.00
2022-10-31T00:17:01.503Z,11.90
2022-10-31T00:19:34.787Z,11.70
2022-10-31T00:22:08.609Z,11.70
2022-10-31T00:24:41.660Z,11.70
2022-10-31T00:27:08.556Z,11.60
2022-10-31T00:29:41.648Z,11.60
2022-10-31T00:32:08.537Z,11.50
2022-10-31T00:34:41.689Z,11.50
2022-10-31T00:37:14.660Z,11.50
2022-10-31T00:39:41.506Z,11.50
2022-10-31T00:42:14.639Z,11.50
2022-10-31T00:44:47.750Z,11.40
2022-10-31T00:47:21.683Z,11.40
2022-10-31T00:49:48.546Z,11.40
2022-10-31T00:52:15.497Z,11.30
2022-10-31T00:54:48.668Z,11.30
2022-10-31T00:57:15.565Z,11.30
2022-10-31T00:59:48.722Z,11.20
2022-10-31T01:02:22.808Z,11.20
2022-10-31T01:04:56.672Z,11.10
2022-10-31T01:07:23.519Z,11.10
2022-10-31T01:09:56.657Z,11.20
2022-10-31T01:12:23.512Z,11.10
2022-10-31T01:14:56.688Z,11.20
2022-10-31T01:17:23.603Z,11.30
2022-10-31T01:19:56.670Z,11.40
2022-10-31T01:22:29.651Z,11.30
2022-10-31T01:24:56.525Z,11.30
2022-10-31T01:27:29.770Z,11.30
2022-10-31T01:29:56.715Z,11.30
2022-10-31T01:32:30.732Z,11.20
2022-10-31T01:34:59.927Z,11.30
2022-10-31T01:37:33.694Z,11.20
2022-10-31T01:40:06.694Z,11.10
2022-10-31T01:42:39.823Z,11.10
2022-10-31T01:45:10.876Z,11.00
2022-10-31T01:48:02.906Z,11.00
2022-10-31T01:50:40.749Z,11.00
2022-10-31T01:53:14.680Z,11.00
2022-10-31T01:55:43.345Z,11.10
2022-10-31T01:58:23.704Z,11.10
2022-10-31T02:00:55.019Z,11.30
2022-10-31T02:03:28.790Z,11.00
2022-10-31T02:05:56.274Z,11.10
2022-10-31T02:08:39.833Z,11.10
2022-10-31T02:11:13.701Z,11.10
2022-10-31T02:13:46.718Z,11.20
2022-10-31T02:16:13.675Z,11.30
2022-10-31T02:18:46.700Z,11.20
2022-10-31T02:21:21.005Z,11.30
2022-10-31T02:24:32.700Z,11.30
2022-10-31T02:27:09.592Z,11.20
2022-10-31T02:30:10.751Z,11.20
2022-10-31T02:33:14.768Z,11.20
2022-10-31T02:36:05.748Z,11.10
2022-10-31T02:39:00.156Z,11.10
2022-10-31T02:42:24.746Z,11.10
2022-10-31T02:45:09.280Z,11.00
2022-10-31T02:47:44.795Z,11.10
2022-10-31T02:50:40.465Z,11.00
2022-10-31T02:53:13.734Z,10.90
2022-10-31T02:55:47.994Z,11.00
2022-10-31T02:58:28.761Z,11.00
2022-10-31T03:01:26.656Z,11.00
2022-10-31T03:04:24.706Z,10.90
2022-10-31T03:07:33.578Z,10.90
2022-10-31T03:10:25.747Z,11.10
2022-10-31T03:13:47.792Z,11.10
2022-10-31T03:16:41.738Z,11.00
2022-10-31T03:19:14.818Z,11.10
2022-10-31T03:22:03.760Z,11.20
2022-10-31T03:24:39.762Z,11.10
2022-10-31T03:27:08.437Z,11.10
2022-10-31T03:29:43.730Z,11.10
2022-10-31T03:32:39.415Z,11.10
2022-10-31T03:35:13.767Z,11.20
2022-10-31T03:37:40.629Z,11.10
2022-10-31T03:40:15.740Z,11.10
2022-10-31T03:42:51.728Z,11.20
2022-10-31T03:45:26.695Z,11.20
2022-10-31T03:48:00.964Z,11.30
2022-10-31T03:50:34.985Z,11.20
2022-10-31T03:53:22.759Z,11.10
2022-10-31T03:56:06.728Z,11.10
2022-10-31T03:59:21.777Z,11.10
2022-10-31T04:01:52.989Z,11.20
2022-10-31T04:04:26.773Z,11.10
2022-10-31T04:07:00.991Z,11.10
2022-10-31T04:09:28.345Z,11.10
2022-10-31T04:12:02.782Z,11.10
2022-10-31T04:14:30.852Z,11.10
2022-10-31T04:17:04.838Z,11.10
2022-10-31T04:19:33.889Z,11.20
2022-10-31T04:22:11.231Z,11.10
2022-10-31T04:24:39.808Z,11.20
2022-10-31T04:27:13.827Z,11.10
2022-10-31T04:29:40.758Z,11.10
2022-10-31T04:32:13.829Z,11.00
2022-10-31T04:34:40.711Z,11.10
2022-10-31T04:37:13.783Z,11.10
2022-10-31T04:39:40.804Z,11.20
2022-10-31T04:42:13.791Z,11.20
2022-10-31T04:44:40.721Z,11.20
2022-10-31T04:47:13.781Z,11.10
2022-10-31T04:49:46.780Z,11.10
2022-10-31T04:52:13.737Z,11.00
2022-10-31T04:54:46.765Z,11.00
2022-10-31T04:57:19.782Z,10.90
2022-10-31T04:59:52.897Z,10.90
2022-10-31T05:02:19.843Z,10.80
2022-10-31T05:04:53.803Z,10.80
2022-10-31T05:07:27.542Z,10.80
2022-10-31T05:10:00.856Z,10.70
2022-10-31T05:12:27.816Z,10.90
2022-10-31T05:14:54.836Z,11.00
2022-10-31T05:17:27.818Z,11.00
2022-10-31T05:20:00.808Z,10.90
2022-10-31T05:22:27.824Z,11.00
2022-10-31T05:25:00.799Z,11.00
2022-10-31T05:27:27.648Z,10.90
2022-10-31T05:29:54.656Z,10.90
2022-10-31T05:32:28.825Z,11.00
2022-10-31T05:34:55.715Z,10.90
2022-10-31T05:37:28.807Z,10.80
2022-10-31T05:39:55.670Z,10.90
2022-10-31T05:42:28.798Z,10.80
2022-10-31T05:44:55.661Z,10.60
2022-10-31T05:47:28.814Z,10.60
2022-10-31T05:49:55.715Z,10.70
2022-10-31T05:52:22.587Z,10.70
2022-10-31T05:54:55.809Z,10.70
2022-10-31T05:57:22.721Z,10.60
2022-10-31T05:59:55.820Z,10.60
2022-10-31T06:02:29.887Z,10.70
2022-10-31T06:04:56.857Z,10.70
2022-10-31T06:07:29.888Z,10.70
2022-10-31T06:09:56.842Z,10.60
2022-10-31T06:12:30.936Z,10.60
2022-10-31T06:14:57.881Z,10.60
2022-10-31T06:17:30.816Z,10.60
2022-10-31T06:19:57.715Z,10.60
2022-10-31T06:22:30.851Z,10.80
2022-10-31T06:24:57.734Z,10.70
2022-10-31T06:27:31.816Z,10.80
2022-10-31T06:29:58.759Z,10.80
2022-10-31T06:32:25.664Z,10.80
2022-10-31T06:34:58.831Z,10.90
2022-10-31T06:37:25.758Z,10.90
2022-10-31T06:39:58.835Z,11.00
2022-10-31T06:42:25.754Z,11.00
2022-10-31T06:44:58.812Z,11.10
2022-10-31T06:47:25.628Z,11.10
2022-10-31T06:49:58.851Z,11.20
2022-10-31T06:52:31.869Z,11.30
2022-10-31T06:54:58.733Z,11.50
2022-10-31T06:57:31.927Z,11.50
2022-10-31T06:59:58.905Z,11.50
2022-10-31T07:02:31.935Z,11.60
2022-10-31T07:04:58.850Z,11.80
2022-10-31T07:07:32.899Z,11.80
2022-10-31T07:10:00.033Z,11.90
2022-10-31T07:12:33.908Z,12.10
2022-10-31T07:15:00.766Z,12.20
2022-10-31T07:17:29.990Z,12.20
2022-10-31T07:20:03.902Z,12.40
2022-10-31T07:22:37.748Z,12.70
2022-10-31T07:25:11.906Z,13.30
2022-10-31T07:27:42.754Z,14.10
2022-10-31T07:30:20.898Z,15.10
2022-10-31T07:32:49.897Z,15.10
2022-10-31T07:35:30.935Z,15.40
2022-10-31T07:38:11.103Z,16.40
2022-10-31T07:40:44.954Z,17.00
2022-10-31T07:43:18.991Z,16.90
2022-10-31T07:45:59.953Z,17.40
2022-10-31T07:48:27.015Z,17.50
2022-10-31T07:50:53.955Z,18.10
2022-10-31T07:53:27.910Z,18.60
2022-10-31T07:55:55.410Z,19.60
2022-10-31T07:58:28.960Z,19.90
2022-10-31T08:00:56.370Z,20.00
2022-10-31T08:03:30.067Z,19.70
2022-10-31T08:05:58.004Z,19.20
2022-10-31T08:08:33.478Z,19.00
2022-10-31T08:11:09.939Z,19.10
2022-10-31T08:13:37.246Z,18.80
2022-10-31T08:16:04.598Z,19.30
2022-10-31T08:18:37.908Z,19.90
2022-10-31T08:21:10.963Z,20.20
2022-10-31T08:23:37.958Z,20.20
2022-10-31T08:26:05.631Z,20.20
2022-10-31T08:28:39.903Z,20.70
2022-10-31T08:31:07.031Z,20.80
2022-10-31T08:33:40.893Z,20.70
2022-10-31T08:36:08.115Z,20.90
2022-10-31T08:38:41.912Z,21.40
2022-10-31T08:41:08.770Z,21.60
2022-10-31T08:43:41.992Z,21.60
2022-10-31T08:46:08.882Z,21.30
2022-10-31T08:48:41.956Z,21.30
2022-10-31T08:51:09.919Z,21.70
2022-10-31T08:53:42.977Z,21.60
2022-10-31T08:56:10.019Z,21.20
2022-10-31T08:58:44.003Z,20.50
2022-10-31T09:01:17.078Z,20.20
2022-10-31T09:03:44.110Z,20.20
2022-10-31T09:06:17.974Z,19.90
2022-10-31T09:08:44.938Z,19.80
2022-10-31T09:11:17.987Z,19.80
2022-10-31T09:13:45.010Z,19.70
2022-10-31T09:16:19.057Z,19.90
2022-10-31T09:18:46.216Z,19.90
2022-10-31T09:21:19.963Z,19.90
2022-10-31T09:23:49.651Z,19.90
2022-10-31T09:26:26.913Z,20.10
2022-10-31T09:28:53.826Z,20.20
2022-10-31T09:31:27.001Z,20.10
2022-10-31T09:33:55.256Z,20.10
2022-10-31T09:36:29.026Z,20.20
2022-10-31T09:38:56.047Z,20.30
2022-10-31T09:42:08.970Z,20.50
2022-10-31T09:45:15.858Z,20.80
2022-10-31T09:48:06.966Z,20.80
2022-10-31T09:51:18.015Z,20.90
2022-10-31T09:54:01.004Z,20.90
2022-10-31T09:56:27.913Z,21.20
2022-10-31T09:59:09.026Z,21.30
2022-10-31T10:01:59.855Z,21.10
2022-10-31T10:04:49.077Z,21.10
2022-10-31T10:07:52.743Z,21.20
2022-10-31T10:10:37.008Z,21.30
2022-10-31T10:13:29.394Z,21.30
2022-10-31T10:16:44.016Z,21.30
2022-10-31T10:19:33.793Z,21.30
2022-10-31T10:22:16.125Z,21.50
2022-10-31T10:25:22.293Z,21.70
2022-10-31T10:28:04.288Z,21.80
2022-10-31T10:30:35.905Z,21.80
2022-10-31T10:33:38.061Z,21.80
2022-10-31T10:36:20.772Z,21.90
2022-10-31T10:39:02.986Z,22.10
2022-10-31T10:41:34.513Z,22.10
2022-10-31T10:44:08.101Z,22.20
2022-10-31T10:46:48.322Z,22.30
2022-10-31T10:49:32.010Z,22.30
2022-10-31T10:52:43.204Z,22.40
2022-10-31T10:55:44.040Z,22.30
2022-10-31T10:58:11.481Z,22.30
2022-10-31T11:00:53.113Z,22.40
2022-10-31T11:03:20.262Z,22.50
2022-10-31T11:05:58.151Z,22.40
2022-10-31T11:08:36.293Z,22.50
2022-10-31T11:11:25.084Z,22.40
2022-10-31T11:13:55.464Z,22.60
2022-10-31T11:16:40.671Z,22.50
2022-10-31T11:19:27.685Z,22.50
2022-10-31T11:22:01.114Z,22.60
2022-10-31T11:24:35.047Z,22.50
2022-10-31T11:27:29.078Z,22.70
2022-10-31T11:30:06.800Z,22.90
2022-10-31T11:32:58.277Z,23.00
2022-10-31T11:35:26.034Z,22.80
2022-10-31T11:37:54.348Z,22.90
2022-10-31T11:40:33.042Z,23.00
2022-10-31T11:43:00.022Z,22.80
2022-10-31T11:45:40.074Z,22.60
2022-10-31T11:48:31.100Z,22.60
2022-10-31T11:50:58.651Z,22.80
2022-10-31T11:53:42.776Z,22.70
2022-10-31T11:56:16.700Z,22.80
2022-10-31T11:58:50.054Z,22.70
2022-10-31T12:01:29.006Z,22.90
2022-10-31T12:04:17.084Z,22.90
2022-10-31T12:06:47.637Z,22.70
2022-10-31T12:09:31.085Z,22.80
2022-10-31T12:12:26.701Z,22.90
2022-10-31T12:15:22.058Z,22.90
2022-10-31T12:20:52.065Z,23.30
2022-10-31T12:23:33.993Z,23.00
2022-10-31T12:26:22.096Z,22.90
2022-10-31T12:29:23.057Z,23.10
2022-10-31T12:32:14.510Z,23.20
2022-10-31T12:35:00.060Z,23.10
2022-10-31T12:37:45.029Z,23.10
2022-10-31T12:41:10.082Z,23.00
2022-10-31T12:44:06.370Z,23.00
2022-10-31T12:47:40.070Z,22.90
2022-10-31T12:50:30.056Z,23.00
2022-10-31T12:53:31.072Z,23.00
2022-10-31T12:56:23.142Z,23.10
2022-10-31T12:59:32.175Z,23.20
2022-10-31T13:02:12.155Z,23.10
2022-10-31T13:05:35.101Z,23.10
2022-10-31T13:08:14.140Z,23.40
2022-10-31T13:10:50.114Z,23.50
2022-10-31T13:13:33.131Z,23.60
2022-10-31T13:16:21.705Z,23.60
2022-10-31T13:19:10.119Z,23.50
2022-10-31T13:21:57.007Z,23.60
2022-10-31T13:24:38.100Z,23.90
2022-10-31T13:27:24.288Z,23.70
2022-10-31T13:30:22.187Z,23.80
2022-10-31T13:33:13.341Z,23.60
2022-10-31T13:36:00.238Z,23.80
2022-10-31T13:38:49.666Z,23.70
2022-10-31T13:41:46.131Z,23.80
2022-10-31T13:44:23.566Z,23.90
2022-10-31T13:46:57.121Z,24.10
2022-10-31T13:49:30.020Z,24.10
2022-10-31T13:52:18.220Z,24.00
2022-10-31T13:54:49.758Z,23.90
2022-10-31T13:57:34.677Z,24.00
2022-10-31T14:00:20.868Z,23.90
2022-10-31T14:03:00.244Z,23.70
2022-10-31T14:05:43.144Z,23.90
2022-10-31T14:08:27.160Z,23.90
2022-10-31T14:11:01.336Z,23.90
2022-10-31T14:13:44.150Z,23.90
2022-10-31T14:16:31.158Z,23.80
2022-10-31T14:19:19.799Z,23.80
2022-10-31T14:21:56.136Z,23.80
2022-10-31T14:24:25.995Z,23.70
2022-10-31T14:27:27.136Z,23.70
2022-10-31T14:30:00.234Z,23.60
2022-10-31T14:32:27.153Z,23.50
2022-10-31T14:35:03.155Z,23.60
2022-10-31T14:38:08.642Z,23.60
2022-10-31T14:40:57.186Z,23.50
2022-10-31T14:44:16.828Z,23.40
2022-10-31T14:46:53.150Z,23.20
2022-10-31T14:49:44.935Z,23.00
2022-10-31T14:52:20.212Z,22.90
2022-10-31T14:54:54.083Z,22.70
2022-10-31T14:57:35.189Z,22.60
2022-10-31T15:00:23.163Z,22.40
2022-10-31T15:03:29.220Z,22.30
2022-10-31T15:05:58.473Z,22.20
2022-10-31T15:08:56.175Z,22.20
2022-10-31T15:11:27.727Z,22.10
2022-10-31T15:14:03.246Z,22.10
2022-10-31T15:16:43.186Z,22.10
2022-10-31T15:19:19.173Z,22.10
2022-10-31T15:21:46.201Z,22.10
2022-10-31T15:24:23.215Z,22.10
2022-10-31T15:27:03.857Z,22.10
2022-10-31T15:29:39.197Z,22.00
2022-10-31T15:32:34.194Z,22.00
2022-10-31T15:35:07.208Z,21.90
2022-10-31T15:37:34.077Z,21.80
2022-10-31T15:40:19.203Z,21.80
2022-10-31T15:43:02.238Z,21.70
2022-10-31T15:45:36.198Z,21.70
2022-10-31T15:48:19.210Z,21.60
2022-10-31T15:50:50.116Z,21.50
2022-10-31T15:53:27.231Z,21.50
2022-10-31T15:56:21.563Z,21.20
2022-10-31T15:58:57.198Z,21.00
2022-10-31T16:01:30.197Z,20.80
2022-10-31T16:04:20.247Z,20.40
2022-10-31T16:06:59.951Z,20.30
2022-10-31T16:09:33.274Z,20.30
2022-10-31T16:12:00.185Z,20.20
2022-10-31T16:14:36.257Z,20.20
2022-10-31T16:17:03.604Z,20.10
2022-10-31T16:19:44.405Z,19.90
2022-10-31T16:22:16.518Z,19.80
2022-10-31T16:24:59.498Z,19.60
2022-10-31T16:27:29.999Z,19.60
2022-10-31T16:30:05.434Z,19.60
2022-10-31T16:32:38.552Z,19.40
2022-10-31T16:35:18.431Z,19.20
2022-10-31T16:37:45.615Z,19.20
2022-10-31T16:40:22.220Z,19.10
2022-10-31T16:42:49.301Z,19.10
2022-10-31T16:45:27.752Z,19.10
2022-10-31T16:47:54.943Z,18.80
2022-10-31T16:50:33.248Z,18.80
2022-10-31T16:53:13.700Z,18.50
2022-10-31T16:56:04.228Z,18.40
2022-10-31T16:58:40.246Z,18.20
2022-10-31T17:01:07.464Z,18.10
2022-10-31T17:03:41.267Z,17.90
2022-10-31T17:06:20.248Z,17.90
2022-10-31T17:08:53.283Z,17.80
2022-10-31T17:11:22.406Z,17.60
2022-10-31T17:13:49.301Z,17.60
2022-10-31T17:16:22.308Z,17.60
2022-10-31T17:18:49.152Z,17.40
2022-10-31T17:21:30.286Z,17.30
2022-10-31T17:24:03.293Z,17.20
2022-10-31T17:26:36.441Z,17.10
2022-10-31T17:29:03.428Z,17.10
2022-10-31T17:31:38.305Z,17.00
2022-10-31T17:34:12.068Z,16.90
2022-10-31T17:36:45.252Z,16.90
2022-10-31T17:39:12.096Z,16.80
2022-10-31T17:41:38.963Z,16.80
2022-10-31T17:44:12.375Z,16.60
2022-10-31T17:46:39.323Z,16.50
2022-10-31T17:49:13.271Z,16.60
2022-10-31T17:51:40.220Z,16.50
2022-10-31T17:54:13.290Z,16.40
2022-10-31T17:56:40.144Z,16.40
2022-10-31T18:01:45.430Z,16.40
2022-10-31T18:04:12.484Z,16.30
2022-10-31T18:06:46.296Z,16.20
2022-10-31T18:09:13.239Z,16.10
2022-10-31T18:11:46.335Z,16.20
2022-10-31T18:14:13.199Z,16.20
2022-10-31T18:16:46.371Z,16.20
2022-10-31T18:19:14.699Z,16.10
2022-10-31T18:21:48.298Z,16.10
2022-10-31T18:24:15.168Z,16.00
2022-10-31T18:26:48.308Z,16.00
2022-10-31T18:29:15.138Z,15.90
2022-10-31T18:31:42.075Z,15.80
2022-10-31T18:34:15.321Z,15.70
2022-10-31T18:36:42.227Z,15.70
2022-10-31T18:39:15.296Z,15.60
2022-10-31T18:41:42.338Z,15.70
2022-10-31T18:44:16.303Z,15.60
2022-10-31T18:46:49.330Z,15.60
2022-10-31T18:49:16.259Z,15.50
2022-10-31T18:51:49.334Z,15.50
2022-10-31T18:54:16.252Z,15.50
2022-10-31T18:56:43.148Z,15.50
2022-10-31T18:59:19.336Z,15.30
2022-10-31T19:01:46.291Z,15.30
2022-10-31T19:04:19.359Z,15.20
2022-10-31T19:06:46.591Z,15.10
2022-10-31T19:09:20.311Z,15.00
2022-10-31T19:11:47.180Z,15.00
2022-10-31T19:14:20.328Z,15.00
2022-10-31T19:16:47.177Z,15.00
2022-10-31T19:19:20.352Z,15.00
2022-10-31T19:21:47.486Z,15.00
2022-10-31T19:24:21.370Z,15.00
2022-10-31T19:26:48.224Z,15.00
2022-10-31T19:29:21.352Z,14.90
2022-10-31T19:31:54.336Z,14.80
2022-10-31T19:34:21.198Z,14.80
2022-10-31T19:36:54.366Z,14.70
2022-10-31T19:39:21.209Z,14.60
2022-10-31T19:41:55.338Z,14.60
2022-10-31T19:44:28.412Z,14.60
2022-10-31T19:47:01.383Z,14.50
2022-10-31T19:49:28.286Z,14.50
2022-10-31T19:52:01.368Z,14.50
2022-10-31T19:54:28.248Z,14.50
2022-10-31T19:57:01.389Z,14.50
2022-10-31T19:59:28.321Z,14.50
2022-10-31T20:01:55.385Z,14.40
2022-10-31T20:04:29.381Z,14.40
2022-10-31T20:07:02.402Z,14.40
2022-10-31T20:09:35.381Z,14.40
2022-10-31T20:12:08.397Z,14.30
2022-10-31T20:14:35.327Z,14.30
2022-10-31T20:17:02.379Z,14.30
2022-10-31T20:19:36.424Z,14.30
2022-10-31T20:22:03.482Z,14.30
2022-10-31T20:24:32.429Z,14.40
2022-10-31T20:27:05.393Z,14.40
2022-10-31T20:29:38.386Z,14.50
2022-10-31T20:32:12.375Z,14.40
2022-10-31T20:34:39.537Z,14.60
2022-10-31T20:37:06.482Z,14.50
2022-10-31T20:39:40.390Z,14.60
2022-10-31T20:42:13.388Z,14.60
2022-10-31T20:44:46.558Z,14.50
2022-10-31T20:47:23.362Z,14.50
2022-10-31T20:49:51.792Z,14.50
2022-10-31T20:52:25.417Z,14.40
2022-10-31T20:54:52.273Z,14.40
2022-10-31T20:57:19.372Z,14.50
2022-10-31T20:59:52.403Z,14.50
2022-10-31T21:02:25.718Z,14.50
2022-10-31T21:04:52.751Z,14.50
2022-10-31T21:07:26.466Z,14.50
2022-10-31T21:09:53.359Z,14.40
2022-10-31T21:12:26.406Z,14.20
2022-10-31T21:14:59.405Z,14.10
2022-10-31T21:17:26.268Z,14.20
2022-10-31T21:19:59.428Z,14.20
2022-10-31T21:22:32.445Z,14.20
2022-10-31T21:25:05.422Z,14.20
2022-10-31T21:27:32.343Z,14.20
2022-10-31T21:30:05.403Z,14.20
2022-10-31T21:32:32.355Z,14.10
2022-10-31T21:35:06.434Z,14.10
2022-10-31T21:37:33.313Z,14.10
2022-10-31T21:40:06.503Z,14.10
2022-10-31T21:42:39.444Z,14.10
2022-10-31T21:45:06.838Z,14.10
2022-10-31T21:47:40.455Z,13.90
2022-10-31T21:50:14.454Z,13.90
2022-10-31T21:52:47.478Z,13.70
2022-10-31T21:55:14.371Z,13.60
2022-10-31T21:57:47.485Z,13.60
2022-10-31T22:00:14.880Z,13.70
2022-10-31T22:02:48.478Z,13.70
2022-10-31T22:05:21.501Z,13.70
2022-10-31T22:07:48.518Z,13.60
2022-10-31T22:10:22.478Z,13.50
2022-10-31T22:12:49.448Z,13.50
2022-10-31T22:15:22.518Z,13.50
2022-10-31T22:17:50.104Z,13.30
2022-10-31T22:20:23.485Z,13.30
2022-10-31T22:22:50.421Z,13.40
2022-10-31T22:25:23.451Z,13.30
2022-10-31T22:27:52.099Z,13.30
2022-10-31T22:30:19.037Z,13.40
2022-10-31T22:32:52.463Z,13.40
2022-10-31T22:35:19.318Z,13.40
2022-10-31T22:37:52.438Z,13.50
2022-10-31T22:40:19.308Z,13.60
2022-10-31T22:42:46.164Z,13.60
2022-10-31T22:45:19.500Z,13.50
2022-10-31T22:47:46.407Z,13.30
2022-10-31T22:50:19.431Z,13.10
2022-10-31T22:52:46.333Z,12.90
2022-10-31T22:55:13.233Z,12.90
2022-10-31T22:57:46.475Z,12.80
2022-10-31T23:00:20.471Z,12.80
2022-10-31T23:02:47.370Z,12.90
2022-10-31T23:05:20.461Z,12.90
2022-10-31T23:07:47.470Z,13.00
2022-10-31T23:10:20.568Z,13.00
2022-10-31T23:12:47.545Z,13.00
2022-10-31T23:15:20.537Z,13.00
2022-10-31T23:17:47.427Z,12.90
2022-10-31T23:20:20.490Z,12.90
2022-10-31T23:22:53.480Z,12.90
2022-10-31T23:25:26.526Z,12.80
2022-10-31T23:27:53.412Z,12.80
2022-10-31T23:30:26.496Z,12.80
2022-10-31T23:33:00.448Z,12.70
2022-10-31T23:35:34.494Z,12.80
2022-10-31T23:38:01.576Z,12.90
2022-10-31T23:40:35.508Z,13.00
2022-10-31T23:43:09.530Z,12.90
2022-10-31T23:45:36.436Z,12.90
2022-10-31T23:48:10.499Z,13.10
2022-10-31T23:50:37.768Z,13.20
2022-10-31T23:53:11.498Z,13.20
2022-10-31T23:55:38.342Z,13.10
2022-10-31T23:58:11.511Z,13.00
